createdAt,value
2019-03-30T00:00:28.494Z,8.80
2019-03-30T00:02:57.953Z,8.50
2019-03-30T00:05:27.751Z,8.70
2019-03-30T00:07:57.128Z,8.80
2019-03-30T00:10:26.949Z,8.60
2019-03-30T00:12:56.770Z,8.90
2019-03-30T00:15:26.302Z,9.00
2019-03-30T00:17:55.797Z,8.80
2019-03-30T00:20:25.268Z,8.60
2019-03-30T00:22:55.085Z,8.80
2019-03-30T00:25:24.538Z,8.90
2019-03-30T00:27:54.002Z,8.70
2019-03-30T00:30:23.472Z,8.50
2019-03-30T00:32:52.917Z,8.50
2019-03-30T00:35:22.808Z,8.60
2019-03-30T00:37:52.252Z,8.70
2019-03-30T00:40:21.754Z,8.40
2019-03-30T00:42:51.149Z,8.50
2019-03-30T00:45:21.334Z,8.50
2019-03-30T00:47:50.791Z,8.50
2019-03-30T00:50:20.276Z,8.50
2019-03-30T00:52:49.654Z,8.70
2019-03-30T00:55:19.115Z,8.70
2019-03-30T00:57:48.856Z,8.70
2019-03-30T01:00:20.196Z,8.70
2019-03-30T01:02:49.646Z,8.60
2019-03-30T01:05:19.217Z,8.50
2019-03-30T01:07:49.038Z,8.60
2019-03-30T01:10:18.689Z,8.60
2019-03-30T01:12:48.477Z,8.60
2019-03-30T01:15:17.934Z,8.70
2019-03-30T01:17:48.177Z,8.50
2019-03-30T01:20:17.734Z,7.70
2019-03-30T01:22:47.298Z,7.40
2019-03-30T01:25:16.846Z,7.00
2019-03-30T01:27:46.604Z,6.80
2019-03-30T01:30:22.937Z,6.70
2019-03-30T01:32:48.218Z,6.50
2019-03-30T01:35:17.720Z,6.40
2019-03-30T01:37:47.315Z,6.20
2019-03-30T01:40:16.854Z,6.10
2019-03-30T01:42:47.689Z,6.10
2019-03-30T01:45:17.473Z,6.10
2019-03-30T01:47:47.282Z,6.10
2019-03-30T01:50:18.078Z,6.00
2019-03-30T01:52:47.775Z,5.90
2019-03-30T01:55:18.601Z,5.80
2019-03-30T01:57:48.260Z,5.80
2019-03-30T02:00:18.520Z,5.80
2019-03-30T02:02:47.982Z,5.80
2019-03-30T02:05:17.450Z,5.90
2019-03-30T02:07:47.077Z,5.90
2019-03-30T02:10:26.485Z,5.80
2019-03-30T02:12:55.854Z,5.70
2019-03-30T02:15:25.309Z,5.70
2019-03-30T02:17:54.765Z,5.80
2019-03-30T02:20:37.042Z,5.70
2019-03-30T02:23:06.668Z,5.60
2019-03-30T02:25:36.480Z,5.50
2019-03-30T02:28:07.143Z,5.50
2019-03-30T02:30:37.298Z,5.40
2019-03-30T02:33:06.849Z,5.30
2019-03-30T02:35:36.535Z,5.40
2019-03-30T02:38:06.598Z,5.40
2019-03-30T02:40:36.644Z,5.40
2019-03-30T02:43:06.442Z,5.40
2019-03-30T02:45:36.046Z,5.40
2019-03-30T02:48:05.761Z,5.50
2019-03-30T02:50:48.386Z,5.40
2019-03-30T02:53:06.462Z,5.30
2019-03-30T02:55:36.110Z,5.40
2019-03-30T02:58:05.928Z,5.30
2019-03-30T03:00:35.553Z,5.30
2019-03-30T03:03:05.194Z,5.30
2019-03-30T03:05:34.939Z,5.30
2019-03-30T03:08:04.405Z,5.30
2019-03-30T03:10:33.849Z,5.30
2019-03-30T03:13:03.384Z,5.20
2019-03-30T03:15:33.562Z,5.10
2019-03-30T03:18:02.965Z,5.20
2019-03-30T03:20:32.580Z,5.10
2019-03-30T03:23:02.002Z,5.10
2019-03-30T03:25:31.541Z,5.00
2019-03-30T03:28:00.998Z,5.00
2019-03-30T03:30:30.365Z,4.90
2019-03-30T03:33:00.058Z,4.80
2019-03-30T03:35:29.618Z,4.80
2019-03-30T03:37:59.033Z,4.70
2019-03-30T03:40:28.397Z,4.70
2019-03-30T03:42:58.064Z,4.70
2019-03-30T03:45:28.109Z,4.70
2019-03-30T03:47:57.481Z,4.70
2019-03-30T03:50:47.013Z,4.60
2019-03-30T03:53:17.665Z,4.70
2019-03-30T03:55:47.624Z,4.60
2019-03-30T03:58:18.228Z,4.60
2019-03-30T04:00:49.644Z,4.50
2019-03-30T04:03:19.520Z,4.50
2019-03-30T04:05:49.435Z,4.50
2019-03-30T04:08:19.288Z,4.50
2019-03-30T04:10:49.374Z,4.50
2019-03-30T04:13:18.928Z,4.50
2019-03-30T04:15:48.817Z,4.40
2019-03-30T04:18:19.092Z,4.30
2019-03-30T04:20:49.049Z,4.30
2019-03-30T04:23:18.525Z,4.30
2019-03-30T04:25:48.155Z,4.30
2019-03-30T04:28:17.787Z,4.30
2019-03-30T04:30:47.572Z,4.40
2019-03-30T04:33:17.068Z,4.30
2019-03-30T04:35:46.635Z,4.40
2019-03-30T04:38:16.129Z,4.30
2019-03-30T04:40:45.922Z,4.40
2019-03-30T04:43:15.386Z,4.50
2019-03-30T04:45:45.217Z,4.40
2019-03-30T04:48:14.780Z,4.40
2019-03-30T04:50:44.823Z,4.40
2019-03-30T04:53:14.348Z,4.30
2019-03-30T04:55:43.802Z,4.30
2019-03-30T04:58:13.437Z,4.30
2019-03-30T05:00:42.890Z,4.30
2019-03-30T05:03:12.362Z,4.20
2019-03-30T05:05:43.302Z,4.10
2019-03-30T05:08:13.229Z,4.10
2019-03-30T05:10:42.777Z,4.10
2019-03-30T05:13:12.317Z,4.10
2019-03-30T05:15:41.849Z,4.10
2019-03-30T05:18:11.236Z,4.20
2019-03-30T05:20:40.689Z,4.10
2019-03-30T05:23:10.074Z,4.20
2019-03-30T05:25:39.736Z,4.20
2019-03-30T05:28:09.273Z,4.10
2019-03-30T05:30:39.349Z,4.10
2019-03-30T05:33:08.848Z,4.10
2019-03-30T05:35:38.760Z,4.20
2019-03-30T05:38:08.217Z,4.30
2019-03-30T05:40:37.594Z,4.40
2019-03-30T05:43:07.109Z,4.30
2019-03-30T05:45:36.670Z,4.30
2019-03-30T05:48:06.234Z,4.30
2019-03-30T05:50:35.625Z,4.40
2019-03-30T05:53:05.080Z,4.50
2019-03-30T05:55:34.552Z,4.70
2019-03-30T05:58:04.520Z,4.80
2019-03-30T06:00:34.069Z,4.80
2019-03-30T06:03:03.946Z,5.00
2019-03-30T06:05:33.502Z,5.10
2019-03-30T06:08:03.218Z,5.20
2019-03-30T06:10:32.872Z,5.30
2019-03-30T06:13:03.773Z,5.30
2019-03-30T06:15:33.577Z,5.40
2019-03-30T06:18:03.713Z,5.60
2019-03-30T06:20:33.214Z,5.70
2019-03-30T06:23:02.687Z,5.90
2019-03-30T06:25:32.082Z,6.00
2019-03-30T06:28:01.522Z,6.10
2019-03-30T06:30:31.855Z,6.10
2019-03-30T06:33:01.297Z,6.20
2019-03-30T06:35:30.718Z,6.50
2019-03-30T06:38:00.470Z,6.60
2019-03-30T06:40:30.169Z,6.70
2019-03-30T06:42:59.708Z,6.90
2019-03-30T06:45:29.097Z,7.10
2019-03-30T06:47:58.545Z,7.30
2019-03-30T06:50:28.598Z,7.40
2019-03-30T06:52:58.882Z,7.60
2019-03-30T06:55:28.513Z,7.80
2019-03-30T06:57:57.978Z,7.90
2019-03-30T07:00:35.056Z,7.90
2019-03-30T07:03:06.710Z,8.00
2019-03-30T07:05:43.701Z,8.20
2019-03-30T07:08:17.578Z,8.30
2019-03-30T07:10:48.384Z,8.50
2019-03-30T07:13:18.329Z,8.60
2019-03-30T07:15:49.302Z,8.70
2019-03-30T07:18:19.277Z,8.70
2019-03-30T07:20:48.958Z,8.90
2019-03-30T07:23:18.493Z,9.10
2019-03-30T07:25:48.042Z,9.30
2019-03-30T07:28:17.572Z,9.20
2019-03-30T07:30:47.151Z,9.30
2019-03-30T07:33:16.717Z,9.30
2019-03-30T07:35:46.710Z,9.40
2019-03-30T07:38:16.420Z,9.60
2019-03-30T07:40:45.962Z,9.80
2019-03-30T07:43:15.697Z,9.70
2019-03-30T07:45:45.454Z,9.90
2019-03-30T07:48:14.898Z,10.10
2019-03-30T07:50:44.292Z,10.20
2019-03-30T07:53:25.795Z,10.40
2019-03-30T07:55:44.882Z,10.60
2019-03-30T07:58:14.417Z,10.70
2019-03-30T08:00:44.254Z,10.70
2019-03-30T08:03:14.017Z,10.80
2019-03-30T08:05:43.570Z,11.00
2019-03-30T08:08:13.158Z,11.00
2019-03-30T08:10:42.738Z,11.00
2019-03-30T08:13:12.286Z,11.00
2019-03-30T08:15:41.749Z,11.30
2019-03-30T08:18:11.285Z,11.40
2019-03-30T08:20:40.761Z,11.50
2019-03-30T08:23:10.258Z,11.40
2019-03-30T08:25:39.721Z,11.60
2019-03-30T08:28:09.594Z,11.70
2019-03-30T08:30:39.332Z,11.80
2019-03-30T08:33:08.793Z,12.00
2019-03-30T08:35:38.181Z,12.20
2019-03-30T08:38:07.566Z,12.00
2019-03-30T08:40:36.973Z,12.20
2019-03-30T08:43:06.600Z,12.40
2019-03-30T08:45:36.225Z,12.40
2019-03-30T08:48:05.735Z,12.60
2019-03-30T08:50:35.270Z,12.70
2019-03-30T08:53:05.128Z,12.50
2019-03-30T08:55:34.580Z,12.50
2019-03-30T08:58:04.057Z,12.80
2019-03-30T09:00:41.078Z,13.00
2019-03-30T09:03:10.741Z,13.20
2019-03-30T09:05:40.425Z,13.50
2019-03-30T09:08:10.193Z,13.70
2019-03-30T09:10:39.950Z,13.80
2019-03-30T09:13:09.473Z,14.00
2019-03-30T09:15:39.061Z,14.20
2019-03-30T09:18:08.993Z,14.20
2019-03-30T09:20:38.559Z,14.00
2019-03-30T09:23:08.070Z,14.10
2019-03-30T09:25:37.523Z,14.30
2019-03-30T09:28:07.354Z,14.50
2019-03-30T09:30:36.865Z,14.60
2019-03-30T09:33:06.854Z,14.80
2019-03-30T09:35:36.736Z,14.80
2019-03-30T09:38:06.309Z,15.00
2019-03-30T09:40:35.873Z,15.00
2019-03-30T09:43:05.873Z,15.00
2019-03-30T09:45:35.520Z,15.40
2019-03-30T09:48:05.125Z,15.40
2019-03-30T09:50:34.492Z,15.20
2019-03-30T09:53:04.070Z,15.20
2019-03-30T09:55:33.552Z,15.30
2019-03-30T09:58:03.064Z,15.50
2019-03-30T10:00:32.671Z,15.90
2019-03-30T10:03:02.161Z,16.30
2019-03-30T10:05:31.941Z,16.10
2019-03-30T10:08:01.635Z,16.20
2019-03-30T10:10:31.098Z,16.30
2019-03-30T10:13:00.484Z,16.60
2019-03-30T10:15:29.942Z,17.00
2019-03-30T10:17:59.404Z,17.00
2019-03-30T10:20:28.785Z,17.20
2019-03-30T10:22:58.553Z,17.40
2019-03-30T10:25:28.347Z,17.70
2019-03-30T10:27:57.885Z,18.00
2019-03-30T10:30:27.359Z,18.10
2019-03-30T10:32:56.945Z,17.60
2019-03-30T10:35:26.553Z,17.80
2019-03-30T10:37:56.333Z,17.90
2019-03-30T10:40:25.861Z,18.10
2019-03-30T10:42:55.260Z,17.80
2019-03-30T10:45:24.865Z,17.30
2019-03-30T10:47:54.898Z,17.50
2019-03-30T10:50:24.430Z,17.60
2019-03-30T10:52:54.221Z,18.00
2019-03-30T10:55:23.611Z,18.30
2019-03-30T10:57:53.010Z,18.70
2019-03-30T11:00:36.881Z,18.50
2019-03-30T11:03:06.476Z,18.40
2019-03-30T11:05:36.002Z,18.50
2019-03-30T11:08:05.668Z,18.70
2019-03-30T11:10:35.161Z,18.90
2019-03-30T11:13:05.367Z,19.30
2019-03-30T11:15:34.897Z,19.30
2019-03-30T11:18:04.737Z,19.50
2019-03-30T11:20:34.186Z,19.40
2019-03-30T11:23:03.850Z,19.20
2019-03-30T11:25:33.385Z,19.20
2019-03-30T11:28:03.253Z,19.10
2019-03-30T11:30:33.193Z,19.10
2019-03-30T11:33:02.720Z,19.00
2019-03-30T11:35:32.300Z,18.90
2019-03-30T11:38:01.774Z,19.10
2019-03-30T11:40:31.353Z,19.50
2019-03-30T11:43:00.814Z,19.90
2019-03-30T11:45:30.282Z,20.10
2019-03-30T11:47:59.671Z,19.80
2019-03-30T11:50:29.134Z,19.90
2019-03-30T11:52:59.030Z,19.80
2019-03-30T11:55:28.492Z,19.90
2019-03-30T11:57:58.044Z,20.10
2019-03-30T12:00:27.505Z,20.50
2019-03-30T12:02:57.041Z,20.70
2019-03-30T12:05:26.509Z,20.70
2019-03-30T12:07:55.914Z,20.40
2019-03-30T12:10:25.419Z,20.70
2019-03-30T12:12:55.162Z,21.10
2019-03-30T12:15:24.906Z,21.10
2019-03-30T12:17:54.957Z,20.70
2019-03-30T12:20:24.422Z,21.00
2019-03-30T12:22:53.937Z,21.70
2019-03-30T12:25:34.753Z,21.90
2019-03-30T12:27:54.670Z,22.50
2019-03-30T12:30:24.141Z,22.80
2019-03-30T12:32:54.353Z,22.90
2019-03-30T12:35:24.006Z,22.50
2019-03-30T12:37:53.669Z,22.50
2019-03-30T12:40:23.220Z,22.40
2019-03-30T12:42:52.679Z,22.50
2019-03-30T12:45:22.538Z,22.50
2019-03-30T12:47:52.153Z,22.80
2019-03-30T12:50:21.751Z,22.90
2019-03-30T12:52:51.577Z,22.90
2019-03-30T12:55:21.038Z,23.30
2019-03-30T12:57:50.442Z,23.40
2019-03-30T13:00:19.989Z,23.90
2019-03-30T13:02:49.661Z,24.20
2019-03-30T13:05:19.444Z,24.30
2019-03-30T13:07:48.828Z,24.30
2019-03-30T13:10:18.368Z,24.10
2019-03-30T13:12:47.761Z,24.20
2019-03-30T13:15:17.301Z,23.80
2019-03-30T13:17:46.769Z,23.60
2019-03-30T13:20:16.569Z,23.60
2019-03-30T13:22:46.141Z,23.80
2019-03-30T13:25:15.709Z,23.80
2019-03-30T13:27:45.176Z,23.10
2019-03-30T13:30:15.021Z,23.30
2019-03-30T13:32:44.562Z,23.90
2019-03-30T13:35:14.097Z,24.20
2019-03-30T13:37:43.645Z,24.30
2019-03-30T13:40:13.234Z,23.70
2019-03-30T13:42:42.733Z,24.10
2019-03-30T13:45:12.572Z,24.50
2019-03-30T13:47:41.965Z,24.50
2019-03-30T13:50:11.707Z,24.90
2019-03-30T13:52:41.181Z,24.40
2019-03-30T13:55:10.820Z,24.50
2019-03-30T13:57:40.220Z,24.90
2019-03-30T14:00:10.407Z,25.10
2019-03-30T14:02:39.935Z,25.20
2019-03-30T14:05:09.607Z,25.20
2019-03-30T14:07:39.204Z,25.60
2019-03-30T14:10:18.101Z,25.50
2019-03-30T14:12:48.065Z,25.40
2019-03-30T14:15:17.599Z,25.10
2019-03-30T14:17:50.205Z,25.50
2019-03-30T14:20:20.073Z,25.60
2019-03-30T14:22:49.700Z,26.00
2019-03-30T14:25:19.461Z,26.00
2019-03-30T14:27:49.332Z,26.30
2019-03-30T14:30:19.376Z,26.30
2019-03-30T14:32:48.982Z,26.30
2019-03-30T14:35:18.737Z,26.40
2019-03-30T14:37:48.616Z,26.40
2019-03-30T14:40:18.086Z,26.10
2019-03-30T14:42:47.583Z,25.60
2019-03-30T14:45:17.118Z,25.80
2019-03-30T14:47:46.617Z,25.80
2019-03-30T14:50:16.475Z,25.80
2019-03-30T14:52:46.112Z,25.60
2019-03-30T14:55:15.685Z,25.70
2019-03-30T14:57:45.107Z,25.60
2019-03-30T15:00:14.965Z,25.40
2019-03-30T15:02:44.925Z,25.40
2019-03-30T15:05:14.765Z,25.20
2019-03-30T15:07:44.234Z,24.90
2019-03-30T15:10:13.977Z,24.90
2019-03-30T15:12:43.621Z,24.80
2019-03-30T15:15:14.395Z,24.70
2019-03-30T15:17:43.838Z,24.70
2019-03-30T15:20:13.501Z,24.70
2019-03-30T15:22:42.993Z,24.60
2019-03-30T15:25:13.756Z,24.30
2019-03-30T15:27:43.281Z,24.00
2019-03-30T15:30:13.940Z,23.90
2019-03-30T15:32:43.528Z,23.80
2019-03-30T15:35:13.094Z,23.60
2019-03-30T15:37:42.738Z,23.50
2019-03-30T15:40:12.557Z,23.70
2019-03-30T15:42:42.377Z,23.50
2019-03-30T15:45:12.209Z,23.30
2019-03-30T15:47:41.674Z,23.30
2019-03-30T15:50:12.029Z,23.20
2019-03-30T15:52:41.685Z,23.10
2019-03-30T15:55:11.558Z,23.10
2019-03-30T15:57:41.285Z,23.00
2019-03-30T16:00:14.053Z,22.80
2019-03-30T16:02:43.606Z,22.70
2019-03-30T16:05:15.482Z,22.70
2019-03-30T16:07:44.651Z,22.60
2019-03-30T16:10:14.504Z,22.60
2019-03-30T16:12:44.431Z,22.70
2019-03-30T16:15:14.021Z,22.60
2019-03-30T16:17:43.593Z,22.50
2019-03-30T16:20:13.242Z,22.40
2019-03-30T16:22:42.698Z,22.50
2019-03-30T16:25:12.242Z,22.40
2019-03-30T16:27:48.202Z,22.30
2019-03-30T16:30:18.060Z,22.20
2019-03-30T16:32:47.578Z,22.10
2019-03-30T16:35:17.044Z,22.10
2019-03-30T16:37:47.442Z,22.10
2019-03-30T16:40:17.265Z,22.00
2019-03-30T16:42:46.813Z,21.90
2019-03-30T16:45:16.430Z,21.90
2019-03-30T16:47:46.104Z,21.80
2019-03-30T16:50:15.650Z,21.60
2019-03-30T16:52:45.226Z,21.60
2019-03-30T16:55:14.829Z,21.50
2019-03-30T16:57:44.434Z,21.30
2019-03-30T17:00:14.290Z,21.10
2019-03-30T17:02:43.754Z,20.90
2019-03-30T17:05:13.700Z,20.70
2019-03-30T17:07:43.163Z,20.50
2019-03-30T17:10:12.913Z,20.40
2019-03-30T17:12:42.369Z,20.20
2019-03-30T17:15:12.257Z,20.00
2019-03-30T17:17:41.806Z,19.70
2019-03-30T17:20:11.636Z,19.60
2019-03-30T17:22:41.174Z,19.30
2019-03-30T17:25:10.744Z,19.10
2019-03-30T17:27:40.485Z,19.00
2019-03-30T17:30:11.152Z,18.90
2019-03-30T17:32:40.755Z,18.70
2019-03-30T17:35:10.309Z,18.50
2019-03-30T17:37:39.853Z,18.30
2019-03-30T17:40:10.210Z,18.10
2019-03-30T17:42:39.741Z,17.90
2019-03-30T17:45:10.900Z,17.80
2019-03-30T17:47:40.550Z,17.60
2019-03-30T17:50:10.494Z,17.40
2019-03-30T17:52:39.941Z,17.30
2019-03-30T17:55:11.260Z,17.10
2019-03-30T17:57:41.522Z,16.90
2019-03-30T18:00:15.122Z,16.70
2019-03-30T18:02:44.634Z,16.50
2019-03-30T18:05:14.227Z,16.50
2019-03-30T18:07:43.705Z,16.40
2019-03-30T18:10:13.757Z,16.30
2019-03-30T18:12:43.218Z,16.20
2019-03-30T18:15:13.079Z,16.00
2019-03-30T18:17:42.541Z,15.80
2019-03-30T18:20:12.585Z,15.60
2019-03-30T18:22:42.605Z,15.60
2019-03-30T18:25:13.009Z,15.40
2019-03-30T18:27:42.926Z,15.30
2019-03-30T18:30:13.600Z,15.20
2019-03-30T18:32:43.770Z,15.10
2019-03-30T18:35:13.606Z,14.90
2019-03-30T18:37:43.643Z,14.90
2019-03-30T18:40:20.056Z,14.90
2019-03-30T18:42:49.669Z,14.80
2019-03-30T18:45:27.101Z,14.70
2019-03-30T18:48:02.149Z,14.50
2019-03-30T18:50:31.991Z,14.40
2019-03-30T18:53:01.544Z,14.40
2019-03-30T18:55:31.028Z,14.30
2019-03-30T18:58:00.598Z,14.30
2019-03-30T19:00:30.378Z,14.20
2019-03-30T19:03:00.022Z,14.20
2019-03-30T19:05:29.598Z,14.10
2019-03-30T19:07:58.991Z,14.10
2019-03-30T19:10:28.866Z,14.00
2019-03-30T19:12:58.489Z,13.90
2019-03-30T19:15:28.175Z,13.80
2019-03-30T19:17:57.936Z,13.60
2019-03-30T19:20:27.511Z,13.50
2019-03-30T19:22:57.069Z,13.50
2019-03-30T19:25:29.599Z,13.40
2019-03-30T19:27:57.645Z,13.30
2019-03-30T19:30:27.462Z,13.30
2019-03-30T19:32:57.077Z,13.30
2019-03-30T19:35:26.622Z,13.20
2019-03-30T19:37:56.092Z,13.10
2019-03-30T19:40:25.638Z,13.00
2019-03-30T19:42:55.369Z,12.90
2019-03-30T19:45:24.901Z,12.80
2019-03-30T19:47:54.325Z,12.80
2019-03-30T19:50:24.493Z,12.60
2019-03-30T19:52:53.946Z,12.60
2019-03-30T19:55:23.878Z,12.50
2019-03-30T19:57:53.370Z,12.40
2019-03-30T20:00:23.044Z,12.40
2019-03-30T20:02:52.728Z,12.40
2019-03-30T20:05:22.442Z,12.40
2019-03-30T20:07:52.248Z,12.30
2019-03-30T20:10:21.865Z,12.20
2019-03-30T20:12:51.430Z,12.10
2019-03-30T20:15:20.893Z,12.10
2019-03-30T20:17:50.769Z,12.10
2019-03-30T20:20:20.225Z,12.00
2019-03-30T20:22:50.125Z,11.90
2019-03-30T20:25:19.714Z,11.90
2019-03-30T20:27:49.517Z,11.80
2019-03-30T20:30:19.353Z,11.80
2019-03-30T20:32:49.286Z,11.70
2019-03-30T20:35:18.858Z,11.70
2019-03-30T20:37:48.475Z,11.60
2019-03-30T20:40:18.329Z,11.60
2019-03-30T20:42:48.069Z,11.60
2019-03-30T20:45:17.610Z,11.50
2019-03-30T20:47:46.989Z,11.40
2019-03-30T20:50:17.009Z,11.30
2019-03-30T20:52:47.030Z,11.30
2019-03-30T20:55:16.781Z,11.30
2019-03-30T20:57:46.354Z,11.20
2019-03-30T21:00:16.092Z,11.10
2019-03-30T21:02:45.577Z,11.10
2019-03-30T21:05:15.261Z,11.00
2019-03-30T21:07:44.734Z,11.00
2019-03-30T21:10:14.594Z,11.00
2019-03-30T21:12:44.082Z,10.90
2019-03-30T21:15:13.846Z,10.80
2019-03-30T21:17:48.271Z,10.80
2019-03-30T21:20:18.207Z,10.80
2019-03-30T21:22:48.142Z,10.80
2019-03-30T21:25:17.913Z,10.60
2019-03-30T21:27:47.846Z,10.60
2019-03-30T21:30:17.984Z,10.60
2019-03-30T21:32:47.565Z,10.50
2019-03-30T21:35:17.093Z,10.50
2019-03-30T21:37:46.638Z,10.50
2019-03-30T21:40:16.102Z,10.40
2019-03-30T21:42:45.590Z,10.40
2019-03-30T21:45:15.205Z,10.30
2019-03-30T21:47:44.749Z,10.20
2019-03-30T21:50:14.721Z,10.20
2019-03-30T21:52:44.358Z,10.20
2019-03-30T21:55:13.935Z,10.10
2019-03-30T21:57:43.450Z,10.10
2019-03-30T22:00:14.530Z,10.10
2019-03-30T22:02:44.189Z,10.00
2019-03-30T22:05:13.724Z,10.00
2019-03-30T22:07:44.537Z,9.90
2019-03-30T22:10:17.061Z,9.90
2019-03-30T22:12:46.785Z,9.90
2019-03-30T22:15:19.601Z,9.90
2019-03-30T22:17:48.991Z,9.80
2019-03-30T22:20:21.274Z,9.80
2019-03-30T22:22:50.063Z,9.80
2019-03-30T22:25:19.610Z,9.70
2019-03-30T22:27:49.175Z,9.70
2019-03-30T22:30:25.088Z,9.60
2019-03-30T22:32:50.041Z,9.60
2019-03-30T22:35:20.190Z,9.60
2019-03-30T22:37:49.789Z,9.50
2019-03-30T22:40:19.267Z,9.50
2019-03-30T22:42:48.822Z,9.50
2019-03-30T22:45:18.379Z,9.50
2019-03-30T22:47:47.885Z,9.40
2019-03-30T22:50:18.070Z,9.40
2019-03-30T22:52:49.134Z,9.30
2019-03-30T22:55:18.738Z,9.30
2019-03-30T22:57:48.222Z,9.30
2019-03-30T23:00:39.029Z,9.30
2019-03-30T23:03:07.814Z,9.20
2019-03-30T23:05:37.455Z,9.20
2019-03-30T23:08:06.982Z,9.20
2019-03-30T23:10:36.753Z,9.20
2019-03-30T23:13:06.142Z,9.20
2019-03-30T23:15:35.784Z,9.10
2019-03-30T23:18:05.487Z,9.10
2019-03-30T23:20:35.206Z,9.00
2019-03-30T23:23:04.933Z,8.90
2019-03-30T23:25:34.481Z,8.90
2019-03-30T23:28:04.010Z,9.00
2019-03-30T23:30:33.622Z,8.90
2019-03-30T23:33:02.984Z,8.80
2019-03-30T23:35:32.462Z,8.80
2019-03-30T23:38:02.505Z,8.80
2019-03-30T23:40:31.926Z,8.80
2019-03-30T23:43:01.491Z,8.70
2019-03-30T23:45:31.201Z,8.70
2019-03-30T23:48:01.076Z,8.60
2019-03-30T23:50:30.574Z,8.60
2019-03-30T23:53:00.052Z,8.60
2019-03-30T23:55:30.892Z,8.50
2019-03-30T23:58:00.357Z,8.50
